sensor_id;sensor_type;location;lat;lon;timestamp;P1;durP1;ratioP1;P2;durP2;ratioP2
41966;SDS011;27656;53.068;8.818;2022-11-25T00:01:13;46.00;;;20.33;;
41966;SDS011;27656;53.068;8.818;2022-11-25T00:03:44;48.07;;;20.73;;
41966;SDS011;27656;53.068;8.818;2022-11-25T00:08:45;40.03;;;20.37;;
41966;SDS011;27656;53.068;8.818;2022-11-25T00:11:13;49.37;;;21.13;;
41966;SDS011;27656;53.068;8.818;2022-11-25T00:13:40;44.70;;;21.43;;
41966;SDS011;27656;53.068;8.818;2022-11-25T00:16:07;46.80;;;21.30;;
41966;SDS011;27656;53.068;8.818;2022-11-25T00:18:35;41.90;;;18.40;;
41966;SDS011;27656;53.068;8.818;2022-11-25T00:21:06;46.53;;;19.23;;
41966;SDS011;27656;53.068;8.818;2022-11-25T00:23:34;39.87;;;19.47;;
41966;SDS011;27656;53.068;8.818;2022-11-25T00:26:05;48.10;;;19.77;;
41966;SDS011;27656;53.068;8.818;2022-11-25T00:28:35;38.17;;;18.97;;
41966;SDS011;27656;53.068;8.818;2022-11-25T00:31:07;38.90;;;17.97;;
41966;SDS011;27656;53.068;8.818;2022-11-25T00:33:36;35.47;;;17.57;;
41966;SDS011;27656;53.068;8.818;2022-11-25T00:36:03;38.40;;;18.83;;
41966;SDS011;27656;53.068;8.818;2022-11-25T00:38:31;40.43;;;20.13;;
41966;SDS011;27656;53.068;8.818;2022-11-25T00:40:57;40.77;;;19.60;;
41966;SDS011;27656;53.068;8.818;2022-11-25T00:43:42;33.80;;;17.63;;
41966;SDS011;27656;53.068;8.818;2022-11-25T00:46:27;46.63;;;17.93;;
41966;SDS011;27656;53.068;8.818;2022-11-25T00:48:54;36.97;;;16.73;;
41966;SDS011;27656;53.068;8.818;2022-11-25T00:51:20;40.57;;;17.80;;
41966;SDS011;27656;53.068;8.818;2022-11-25T00:53:47;37.57;;;16.33;;
41966;SDS011;27656;53.068;8.818;2022-11-25T00:56:13;37.30;;;17.63;;
41966;SDS011;27656;53.068;8.818;2022-11-25T00:58:40;38.37;;;15.87;;
41966;SDS011;27656;53.068;8.818;2022-11-25T01:01:08;38.93;;;16.27;;
41966;SDS011;27656;53.068;8.818;2022-11-25T01:03:35;32.50;;;15.63;;
41966;SDS011;27656;53.068;8.818;2022-11-25T01:06:06;32.70;;;16.53;;
41966;SDS011;27656;53.068;8.818;2022-11-25T01:08:34;37.97;;;15.37;;
41966;SDS011;27656;53.068;8.818;2022-11-25T01:11:02;31.60;;;15.20;;
41966;SDS011;27656;53.068;8.818;2022-11-25T01:13:34;41.07;;;16.27;;
41966;SDS011;27656;53.068;8.818;2022-11-25T01:16:01;38.60;;;16.63;;
41966;SDS011;27656;53.068;8.818;2022-11-25T01:18:29;33.80;;;15.80;;
41966;SDS011;27656;53.068;8.818;2022-11-25T01:21:17;34.83;;;15.43;;
41966;SDS011;27656;53.068;8.818;2022-11-25T01:23:43;33.63;;;14.63;;
41966;SDS011;27656;53.068;8.818;2022-11-25T01:26:13;29.60;;;14.20;;
41966;SDS011;27656;53.068;8.818;2022-11-25T01:28:44;32.10;;;15.23;;
41966;SDS011;27656;53.068;8.818;2022-11-25T01:33:44;32.87;;;14.50;;
41966;SDS011;27656;53.068;8.818;2022-11-25T01:36:13;31.83;;;13.40;;
41966;SDS011;27656;53.068;8.818;2022-11-25T01:38:41;31.87;;;13.30;;
41966;SDS011;27656;53.068;8.818;2022-11-25T01:41:09;32.93;;;13.40;;
41966;SDS011;27656;53.068;8.818;2022-11-25T01:43:37;31.60;;;14.27;;
41966;SDS011;27656;53.068;8.818;2022-11-25T01:48:48;30.03;;;12.73;;
41966;SDS011;27656;53.068;8.818;2022-11-25T01:51:26;29.00;;;12.33;;
41966;SDS011;27656;53.068;8.818;2022-11-25T01:53:54;31.20;;;14.27;;
41966;SDS011;27656;53.068;8.818;2022-11-25T01:56:23;34.77;;;14.10;;
41966;SDS011;27656;53.068;8.818;2022-11-25T01:58:51;35.07;;;13.93;;
41966;SDS011;27656;53.068;8.818;2022-11-25T02:01:18;28.77;;;13.33;;
41966;SDS011;27656;53.068;8.818;2022-11-25T02:03:48;37.33;;;13.37;;
41966;SDS011;27656;53.068;8.818;2022-11-25T02:08:51;27.73;;;12.13;;
41966;SDS011;27656;53.068;8.818;2022-11-25T02:11:19;32.67;;;13.97;;
41966;SDS011;27656;53.068;8.818;2022-11-25T02:13:46;30.23;;;11.67;;
41966;SDS011;27656;53.068;8.818;2022-11-25T02:16:14;33.97;;;12.60;;
41966;SDS011;27656;53.068;8.818;2022-11-25T02:18:41;32.67;;;12.20;;
41966;SDS011;27656;53.068;8.818;2022-11-25T02:21:07;36.53;;;13.00;;
41966;SDS011;27656;53.068;8.818;2022-11-25T02:23:49;29.60;;;13.00;;
41966;SDS011;27656;53.068;8.818;2022-11-25T02:26:19;32.07;;;11.50;;
41966;SDS011;27656;53.068;8.818;2022-11-25T02:28:46;27.17;;;12.20;;
41966;SDS011;27656;53.068;8.818;2022-11-25T02:31:12;29.13;;;11.73;;
41966;SDS011;27656;53.068;8.818;2022-11-25T02:33:45;26.13;;;11.23;;
41966;SDS011;27656;53.068;8.818;2022-11-25T02:36:12;25.57;;;12.17;;
41966;SDS011;27656;53.068;8.818;2022-11-25T02:38:41;27.13;;;11.33;;
41966;SDS011;27656;53.068;8.818;2022-11-25T02:43:39;30.80;;;11.33;;
41966;SDS011;27656;53.068;8.818;2022-11-25T02:46:10;25.73;;;11.33;;
41966;SDS011;27656;53.068;8.818;2022-11-25T02:48:45;24.17;;;10.30;;
41966;SDS011;27656;53.068;8.818;2022-11-25T02:51:32;25.93;;;10.20;;
41966;SDS011;27656;53.068;8.818;2022-11-25T02:53:59;29.70;;;11.07;;
41966;SDS011;27656;53.068;8.818;2022-11-25T02:56:28;24.73;;;10.87;;
41966;SDS011;27656;53.068;8.818;2022-11-25T02:58:55;26.90;;;11.00;;
41966;SDS011;27656;53.068;8.818;2022-11-25T03:01:22;21.27;;;9.57;;
41966;SDS011;27656;53.068;8.818;2022-11-25T03:03:49;23.67;;;11.07;;
41966;SDS011;27656;53.068;8.818;2022-11-25T03:06:16;24.07;;;9.70;;
41966;SDS011;27656;53.068;8.818;2022-11-25T03:08:43;20.43;;;9.80;;
41966;SDS011;27656;53.068;8.818;2022-11-25T03:11:09;27.80;;;9.50;;
41966;SDS011;27656;53.068;8.818;2022-11-25T03:13:36;20.03;;;9.50;;
41966;SDS011;27656;53.068;8.818;2022-11-25T03:16:02;26.57;;;9.70;;
41966;SDS011;27656;53.068;8.818;2022-11-25T03:18:29;23.30;;;8.63;;
41966;SDS011;27656;53.068;8.818;2022-11-25T03:20:55;29.17;;;9.37;;
41966;SDS011;27656;53.068;8.818;2022-11-25T03:23:22;18.67;;;8.87;;
41966;SDS011;27656;53.068;8.818;2022-11-25T03:25:49;22.07;;;9.30;;
41966;SDS011;27656;53.068;8.818;2022-11-25T03:28:16;25.53;;;9.07;;
41966;SDS011;27656;53.068;8.818;2022-11-25T03:30:42;23.87;;;9.23;;
41966;SDS011;27656;53.068;8.818;2022-11-25T03:33:09;26.53;;;9.27;;
41966;SDS011;27656;53.068;8.818;2022-11-25T03:35:35;21.13;;;8.63;;
41966;SDS011;27656;53.068;8.818;2022-11-25T03:38:02;21.17;;;8.90;;
41966;SDS011;27656;53.068;8.818;2022-11-25T03:40:28;26.93;;;9.03;;
41966;SDS011;27656;53.068;8.818;2022-11-25T03:42:55;21.87;;;8.97;;
41966;SDS011;27656;53.068;8.818;2022-11-25T03:45:21;19.23;;;8.13;;
41966;SDS011;27656;53.068;8.818;2022-11-25T03:47:47;17.40;;;8.37;;
41966;SDS011;27656;53.068;8.818;2022-11-25T03:50:14;23.03;;;8.47;;
41966;SDS011;27656;53.068;8.818;2022-11-25T03:52:41;23.67;;;8.83;;
41966;SDS011;27656;53.068;8.818;2022-11-25T03:55:08;17.63;;;7.90;;
41966;SDS011;27656;53.068;8.818;2022-11-25T03:57:35;26.13;;;9.13;;
41966;SDS011;27656;53.068;8.818;2022-11-25T04:00:02;21.23;;;7.70;;
41966;SDS011;27656;53.068;8.818;2022-11-25T04:02:29;16.70;;;9.27;;
41966;SDS011;27656;53.068;8.818;2022-11-25T04:04:56;18.07;;;8.63;;
41966;SDS011;27656;53.068;8.818;2022-11-25T04:07:22;16.70;;;8.20;;
41966;SDS011;27656;53.068;8.818;2022-11-25T04:09:49;23.17;;;7.87;;
41966;SDS011;27656;53.068;8.818;2022-11-25T04:12:15;23.03;;;7.60;;
41966;SDS011;27656;53.068;8.818;2022-11-25T04:15:00;14.23;;;6.83;;
41966;SDS011;27656;53.068;8.818;2022-11-25T04:17:26;16.47;;;6.70;;
41966;SDS011;27656;53.068;8.818;2022-11-25T04:19:53;16.93;;;7.60;;
41966;SDS011;27656;53.068;8.818;2022-11-25T04:22:19;20.40;;;7.93;;
41966;SDS011;27656;53.068;8.818;2022-11-25T04:24:46;17.87;;;7.60;;
41966;SDS011;27656;53.068;8.818;2022-11-25T04:27:12;22.33;;;7.40;;
41966;SDS011;27656;53.068;8.818;2022-11-25T04:29:39;16.47;;;6.30;;
41966;SDS011;27656;53.068;8.818;2022-11-25T04:32:05;23.73;;;6.83;;
41966;SDS011;27656;53.068;8.818;2022-11-25T04:34:32;15.57;;;6.50;;
41966;SDS011;27656;53.068;8.818;2022-11-25T04:36:59;19.00;;;6.27;;
41966;SDS011;27656;53.068;8.818;2022-11-25T04:39:25;18.77;;;6.60;;
41966;SDS011;27656;53.068;8.818;2022-11-25T04:41:52;11.87;;;6.17;;
41966;SDS011;27656;53.068;8.818;2022-11-25T04:44:38;16.93;;;6.53;;
41966;SDS011;27656;53.068;8.818;2022-11-25T04:47:05;17.57;;;6.20;;
41966;SDS011;27656;53.068;8.818;2022-11-25T04:49:31;20.57;;;6.60;;
41966;SDS011;27656;53.068;8.818;2022-11-25T04:51:58;23.87;;;6.77;;
41966;SDS011;27656;53.068;8.818;2022-11-25T04:54:24;14.60;;;7.07;;
41966;SDS011;27656;53.068;8.818;2022-11-25T04:56:51;19.57;;;6.67;;
41966;SDS011;27656;53.068;8.818;2022-11-25T04:59:17;16.70;;;6.60;;
41966;SDS011;27656;53.068;8.818;2022-11-25T05:02:02;17.43;;;6.70;;
41966;SDS011;27656;53.068;8.818;2022-11-25T05:04:29;13.07;;;6.07;;
41966;SDS011;27656;53.068;8.818;2022-11-25T05:06:55;23.77;;;6.73;;
41966;SDS011;27656;53.068;8.818;2022-11-25T05:09:22;16.60;;;5.93;;
41966;SDS011;27656;53.068;8.818;2022-11-25T05:11:48;14.63;;;6.53;;
41966;SDS011;27656;53.068;8.818;2022-11-25T05:14:15;21.90;;;6.63;;
41966;SDS011;27656;53.068;8.818;2022-11-25T05:16:41;15.67;;;6.37;;
41966;SDS011;27656;53.068;8.818;2022-11-25T05:19:08;21.13;;;6.43;;
41966;SDS011;27656;53.068;8.818;2022-11-25T05:21:34;16.30;;;5.80;;
41966;SDS011;27656;53.068;8.818;2022-11-25T05:24:01;13.77;;;6.40;;
41966;SDS011;27656;53.068;8.818;2022-11-25T05:26:27;14.27;;;6.17;;
41966;SDS011;27656;53.068;8.818;2022-11-25T05:28:54;16.27;;;6.17;;
41966;SDS011;27656;53.068;8.818;2022-11-25T05:31:20;15.10;;;6.70;;
41966;SDS011;27656;53.068;8.818;2022-11-25T05:33:47;16.50;;;6.27;;
41966;SDS011;27656;53.068;8.818;2022-11-25T05:36:13;13.57;;;6.30;;
41966;SDS011;27656;53.068;8.818;2022-11-25T05:38:39;19.87;;;6.47;;
41966;SDS011;27656;53.068;8.818;2022-11-25T05:41:06;17.87;;;6.47;;
41966;SDS011;27656;53.068;8.818;2022-11-25T05:43:33;13.47;;;5.70;;
41966;SDS011;27656;53.068;8.818;2022-11-25T05:46:03;15.93;;;6.30;;
41966;SDS011;27656;53.068;8.818;2022-11-25T05:48:32;15.97;;;6.30;;
41966;SDS011;27656;53.068;8.818;2022-11-25T05:50:59;15.80;;;6.60;;
41966;SDS011;27656;53.068;8.818;2022-11-25T05:53:29;18.93;;;6.10;;
41966;SDS011;27656;53.068;8.818;2022-11-25T05:55:57;13.90;;;6.10;;
41966;SDS011;27656;53.068;8.818;2022-11-25T05:58:24;17.13;;;6.00;;
41966;SDS011;27656;53.068;8.818;2022-11-25T06:00:51;13.43;;;5.70;;
41966;SDS011;27656;53.068;8.818;2022-11-25T06:03:18;25.67;;;6.33;;
41966;SDS011;27656;53.068;8.818;2022-11-25T06:05:44;15.30;;;6.07;;
41966;SDS011;27656;53.068;8.818;2022-11-25T06:08:11;19.50;;;5.60;;
41966;SDS011;27656;53.068;8.818;2022-11-25T06:10:38;19.17;;;5.90;;
41966;SDS011;27656;53.068;8.818;2022-11-25T06:13:08;13.10;;;5.60;;
41966;SDS011;27656;53.068;8.818;2022-11-25T06:15:39;13.07;;;5.60;;
41966;SDS011;27656;53.068;8.818;2022-11-25T06:18:06;17.80;;;5.17;;
41966;SDS011;27656;53.068;8.818;2022-11-25T06:20:33;15.43;;;4.77;;
41966;SDS011;27656;53.068;8.818;2022-11-25T06:23:00;15.93;;;5.37;;
41966;SDS011;27656;53.068;8.818;2022-11-25T06:25:26;14.77;;;5.67;;
41966;SDS011;27656;53.068;8.818;2022-11-25T06:27:53;21.43;;;5.80;;
41966;SDS011;27656;53.068;8.818;2022-11-25T06:30:38;15.10;;;5.27;;
41966;SDS011;27656;53.068;8.818;2022-11-25T06:33:04;14.40;;;4.93;;
41966;SDS011;27656;53.068;8.818;2022-11-25T06:35:31;17.17;;;5.80;;
41966;SDS011;27656;53.068;8.818;2022-11-25T06:37:58;17.80;;;5.53;;
41966;SDS011;27656;53.068;8.818;2022-11-25T06:40:24;12.93;;;5.00;;
41966;SDS011;27656;53.068;8.818;2022-11-25T06:42:51;14.53;;;4.80;;
41966;SDS011;27656;53.068;8.818;2022-11-25T06:45:17;13.80;;;4.90;;
41966;SDS011;27656;53.068;8.818;2022-11-25T06:47:44;16.17;;;4.73;;
41966;SDS011;27656;53.068;8.818;2022-11-25T06:50:11;14.17;;;5.37;;
41966;SDS011;27656;53.068;8.818;2022-11-25T06:52:37;11.63;;;5.47;;
41966;SDS011;27656;53.068;8.818;2022-11-25T06:55:04;19.07;;;5.63;;
41966;SDS011;27656;53.068;8.818;2022-11-25T06:57:30;14.00;;;4.70;;
41966;SDS011;27656;53.068;8.818;2022-11-25T06:59:57;17.23;;;5.10;;
41966;SDS011;27656;53.068;8.818;2022-11-25T07:02:23;15.03;;;5.20;;
41966;SDS011;27656;53.068;8.818;2022-11-25T07:04:50;13.83;;;5.17;;
41966;SDS011;27656;53.068;8.818;2022-11-25T07:07:16;10.47;;;4.60;;
41966;SDS011;27656;53.068;8.818;2022-11-25T07:09:43;16.17;;;4.77;;
41966;SDS011;27656;53.068;8.818;2022-11-25T07:12:09;12.10;;;5.33;;
41966;SDS011;27656;53.068;8.818;2022-11-25T07:14:37;12.23;;;4.90;;
41966;SDS011;27656;53.068;8.818;2022-11-25T07:17:04;11.10;;;4.23;;
41966;SDS011;27656;53.068;8.818;2022-11-25T07:19:37;14.80;;;5.10;;
41966;SDS011;27656;53.068;8.818;2022-11-25T07:22:03;12.33;;;5.37;;
41966;SDS011;27656;53.068;8.818;2022-11-25T07:24:30;11.83;;;4.63;;
41966;SDS011;27656;53.068;8.818;2022-11-25T07:26:56;11.93;;;4.67;;
41966;SDS011;27656;53.068;8.818;2022-11-25T07:29:23;15.37;;;4.83;;
41966;SDS011;27656;53.068;8.818;2022-11-25T07:32:09;14.77;;;5.27;;
41966;SDS011;27656;53.068;8.818;2022-11-25T07:34:36;13.40;;;4.83;;
41966;SDS011;27656;53.068;8.818;2022-11-25T07:37:03;13.00;;;5.03;;
41966;SDS011;27656;53.068;8.818;2022-11-25T07:39:29;14.40;;;5.03;;
41966;SDS011;27656;53.068;8.818;2022-11-25T07:41:56;8.43;;;4.07;;
41966;SDS011;27656;53.068;8.818;2022-11-25T07:44:22;17.53;;;5.73;;
41966;SDS011;27656;53.068;8.818;2022-11-25T07:46:49;12.40;;;4.73;;
41966;SDS011;27656;53.068;8.818;2022-11-25T07:49:18;20.63;;;4.60;;
41966;SDS011;27656;53.068;8.818;2022-11-25T07:51:50;13.50;;;5.33;;
41966;SDS011;27656;53.068;8.818;2022-11-25T07:54:19;14.60;;;6.13;;
41966;SDS011;27656;53.068;8.818;2022-11-25T07:56:47;17.13;;;4.50;;
41966;SDS011;27656;53.068;8.818;2022-11-25T07:59:16;17.10;;;5.10;;
41966;SDS011;27656;53.068;8.818;2022-11-25T08:01:44;16.47;;;5.47;;
41966;SDS011;27656;53.068;8.818;2022-11-25T08:04:11;10.57;;;4.87;;
41966;SDS011;27656;53.068;8.818;2022-11-25T08:06:45;14.63;;;4.57;;
41966;SDS011;27656;53.068;8.818;2022-11-25T08:09:14;13.80;;;5.20;;
41966;SDS011;27656;53.068;8.818;2022-11-25T08:11:45;12.90;;;4.30;;
41966;SDS011;27656;53.068;8.818;2022-11-25T08:14:12;15.30;;;4.90;;
41966;SDS011;27656;53.068;8.818;2022-11-25T08:16:39;11.53;;;4.27;;
41966;SDS011;27656;53.068;8.818;2022-11-25T08:19:07;15.43;;;4.90;;
41966;SDS011;27656;53.068;8.818;2022-11-25T08:21:36;19.27;;;5.43;;
41966;SDS011;27656;53.068;8.818;2022-11-25T08:24:03;8.90;;;4.80;;
41966;SDS011;27656;53.068;8.818;2022-11-25T08:26:31;20.03;;;5.37;;
41966;SDS011;27656;53.068;8.818;2022-11-25T08:29:02;8.93;;;4.57;;
41966;SDS011;27656;53.068;8.818;2022-11-25T08:31:30;11.43;;;4.63;;
41966;SDS011;27656;53.068;8.818;2022-11-25T08:33:58;18.03;;;5.10;;
41966;SDS011;27656;53.068;8.818;2022-11-25T08:36:25;20.10;;;5.63;;
41966;SDS011;27656;53.068;8.818;2022-11-25T08:38:54;17.63;;;5.07;;
41966;SDS011;27656;53.068;8.818;2022-11-25T08:41:26;11.17;;;4.90;;
41966;SDS011;27656;53.068;8.818;2022-11-25T08:43:55;19.00;;;5.50;;
41966;SDS011;27656;53.068;8.818;2022-11-25T08:46:24;16.00;;;5.50;;
41966;SDS011;27656;53.068;8.818;2022-11-25T08:48:53;18.97;;;5.27;;
41966;SDS011;27656;53.068;8.818;2022-11-25T08:51:22;13.77;;;5.70;;
41966;SDS011;27656;53.068;8.818;2022-11-25T08:53:50;17.70;;;5.23;;
41966;SDS011;27656;53.068;8.818;2022-11-25T08:56:17;11.17;;;4.97;;
41966;SDS011;27656;53.068;8.818;2022-11-25T08:58:51;16.30;;;5.70;;
41966;SDS011;27656;53.068;8.818;2022-11-25T09:01:18;17.87;;;5.50;;
41966;SDS011;27656;53.068;8.818;2022-11-25T09:03:46;15.87;;;4.83;;
41966;SDS011;27656;53.068;8.818;2022-11-25T09:06:14;13.13;;;4.93;;
41966;SDS011;27656;53.068;8.818;2022-11-25T09:08:41;10.70;;;4.93;;
41966;SDS011;27656;53.068;8.818;2022-11-25T09:11:08;13.03;;;5.47;;
41966;SDS011;27656;53.068;8.818;2022-11-25T09:13:36;16.67;;;4.93;;
41966;SDS011;27656;53.068;8.818;2022-11-25T09:16:03;17.23;;;4.67;;
41966;SDS011;27656;53.068;8.818;2022-11-25T09:18:29;18.13;;;4.87;;
41966;SDS011;27656;53.068;8.818;2022-11-25T09:20:57;12.77;;;4.40;;
41966;SDS011;27656;53.068;8.818;2022-11-25T09:23:24;14.50;;;4.87;;
41966;SDS011;27656;53.068;8.818;2022-11-25T09:25:52;15.83;;;5.53;;
41966;SDS011;27656;53.068;8.818;2022-11-25T09:28:20;15.33;;;5.37;;
41966;SDS011;27656;53.068;8.818;2022-11-25T09:30:47;23.97;;;5.60;;
41966;SDS011;27656;53.068;8.818;2022-11-25T09:33:14;16.57;;;5.30;;
41966;SDS011;27656;53.068;8.818;2022-11-25T09:35:40;16.80;;;5.10;;
41966;SDS011;27656;53.068;8.818;2022-11-25T09:38:07;12.43;;;5.10;;
41966;SDS011;27656;53.068;8.818;2022-11-25T09:43:28;14.20;;;5.27;;
41966;SDS011;27656;53.068;8.818;2022-11-25T09:49:20;9.83;;;4.90;;
41966;SDS011;27656;53.068;8.818;2022-11-25T09:54:31;10.97;;;4.23;;
41966;SDS011;27656;53.068;8.818;2022-11-25T10:00:39;12.27;;;4.50;;
41966;SDS011;27656;53.068;8.818;2022-11-25T10:05:56;12.23;;;4.00;;
41966;SDS011;27656;53.068;8.818;2022-11-25T10:08:26;23.00;;;5.47;;
41966;SDS011;27656;53.068;8.818;2022-11-25T10:11:06;15.77;;;4.83;;
41966;SDS011;27656;53.068;8.818;2022-11-25T10:16:27;19.93;;;5.87;;
41966;SDS011;27656;53.068;8.818;2022-11-25T10:19:00;18.33;;;5.10;;
41966;SDS011;27656;53.068;8.818;2022-11-25T10:21:38;14.03;;;5.00;;
41966;SDS011;27656;53.068;8.818;2022-11-25T10:24:05;15.60;;;5.07;;
41966;SDS011;27656;53.068;8.818;2022-11-25T10:26:38;13.60;;;4.87;;
41966;SDS011;27656;53.068;8.818;2022-11-25T10:31:39;10.93;;;4.33;;
41966;SDS011;27656;53.068;8.818;2022-11-25T10:34:18;15.60;;;5.00;;
41966;SDS011;27656;53.068;8.818;2022-11-25T10:36:49;16.43;;;4.50;;
41966;SDS011;27656;53.068;8.818;2022-11-25T10:39:21;14.47;;;5.03;;
41966;SDS011;27656;53.068;8.818;2022-11-25T10:41:51;14.67;;;4.60;;
41966;SDS011;27656;53.068;8.818;2022-11-25T10:47:00;16.07;;;5.90;;
41966;SDS011;27656;53.068;8.818;2022-11-25T10:49:49;15.93;;;4.90;;
41966;SDS011;27656;53.068;8.818;2022-11-25T10:52:27;10.47;;;4.07;;
41966;SDS011;27656;53.068;8.818;2022-11-25T10:54:57;13.43;;;4.43;;
41966;SDS011;27656;53.068;8.818;2022-11-25T10:57:34;16.70;;;5.17;;
41966;SDS011;27656;53.068;8.818;2022-11-25T11:00:02;16.27;;;5.33;;
41966;SDS011;27656;53.068;8.818;2022-11-25T11:02:40;13.70;;;4.33;;
41966;SDS011;27656;53.068;8.818;2022-11-25T11:07:34;14.97;;;5.00;;
41966;SDS011;27656;53.068;8.818;2022-11-25T11:10:23;14.33;;;5.30;;
41966;SDS011;27656;53.068;8.818;2022-11-25T11:15:25;11.50;;;5.27;;
41966;SDS011;27656;53.068;8.818;2022-11-25T11:17:54;14.10;;;5.27;;
41966;SDS011;27656;53.068;8.818;2022-11-25T11:25:24;11.30;;;5.07;;
41966;SDS011;27656;53.068;8.818;2022-11-25T11:27:55;8.97;;;4.87;;
41966;SDS011;27656;53.068;8.818;2022-11-25T11:30:24;13.10;;;5.17;;
41966;SDS011;27656;53.068;8.818;2022-11-25T11:32:57;14.00;;;5.60;;
41966;SDS011;27656;53.068;8.818;2022-11-25T11:35:49;12.80;;;4.90;;
41966;SDS011;27656;53.068;8.818;2022-11-25T11:38:37;14.80;;;5.20;;
41966;SDS011;27656;53.068;8.818;2022-11-25T11:41:10;13.67;;;4.97;;
41966;SDS011;27656;53.068;8.818;2022-11-25T11:43:56;13.70;;;5.10;;
41966;SDS011;27656;53.068;8.818;2022-11-25T11:46:51;18.73;;;5.00;;
41966;SDS011;27656;53.068;8.818;2022-11-25T11:49:28;13.83;;;5.10;;
41966;SDS011;27656;53.068;8.818;2022-11-25T11:55:11;9.77;;;4.60;;
41966;SDS011;27656;53.068;8.818;2022-11-25T11:57:59;15.80;;;5.03;;
41966;SDS011;27656;53.068;8.818;2022-11-25T12:03:32;19.47;;;6.00;;
41966;SDS011;27656;53.068;8.818;2022-11-25T12:06:04;10.37;;;5.43;;
41966;SDS011;27656;53.068;8.818;2022-11-25T12:11:34;12.57;;;6.83;;
41966;SDS011;27656;53.068;8.818;2022-11-25T12:16:57;13.33;;;7.27;;
41966;SDS011;27656;53.068;8.818;2022-11-25T12:27:24;20.43;;;9.23;;
41966;SDS011;27656;53.068;8.818;2022-11-25T12:40:46;19.27;;;10.30;;
41966;SDS011;27656;53.068;8.818;2022-11-25T12:43:33;22.67;;;10.43;;
41966;SDS011;27656;53.068;8.818;2022-11-25T12:48:41;19.57;;;9.77;;
41966;SDS011;27656;53.068;8.818;2022-11-25T12:53:45;24.23;;;11.10;;
41966;SDS011;27656;53.068;8.818;2022-11-25T12:56:52;21.63;;;11.10;;
41966;SDS011;27656;53.068;8.818;2022-11-25T13:16:39;32.30;;;12.20;;
41966;SDS011;27656;53.068;8.818;2022-11-25T13:19:07;20.73;;;12.03;;
41966;SDS011;27656;53.068;8.818;2022-11-25T13:21:34;26.33;;;12.10;;
41966;SDS011;27656;53.068;8.818;2022-11-25T13:24:01;26.13;;;12.00;;
41966;SDS011;27656;53.068;8.818;2022-11-25T13:28:55;17.83;;;12.33;;
41966;SDS011;27656;53.068;8.818;2022-11-25T13:31:32;23.97;;;12.60;;
41966;SDS011;27656;53.068;8.818;2022-11-25T13:34:07;25.70;;;12.00;;
41966;SDS011;27656;53.068;8.818;2022-11-25T13:36:55;22.37;;;12.67;;
41966;SDS011;27656;53.068;8.818;2022-11-25T13:41:57;23.20;;;11.83;;
41966;SDS011;27656;53.068;8.818;2022-11-25T13:44:54;22.33;;;11.23;;
41966;SDS011;27656;53.068;8.818;2022-11-25T13:47:35;21.40;;;11.70;;
41966;SDS011;27656;53.068;8.818;2022-11-25T13:50:17;21.30;;;12.67;;
41966;SDS011;27656;53.068;8.818;2022-11-25T13:52:48;20.27;;;12.70;;
41966;SDS011;27656;53.068;8.818;2022-11-25T13:55:39;23.67;;;12.70;;
41966;SDS011;27656;53.068;8.818;2022-11-25T14:06:04;24.83;;;13.30;;
41966;SDS011;27656;53.068;8.818;2022-11-25T14:27:56;22.90;;;11.93;;
41966;SDS011;27656;53.068;8.818;2022-11-25T14:30:30;21.00;;;12.90;;
41966;SDS011;27656;53.068;8.818;2022-11-25T14:32:58;22.67;;;11.47;;
41966;SDS011;27656;53.068;8.818;2022-11-25T14:35:33;24.93;;;13.57;;
41966;SDS011;27656;53.068;8.818;2022-11-25T14:38:15;23.60;;;12.77;;
41966;SDS011;27656;53.068;8.818;2022-11-25T14:40:56;22.50;;;12.00;;
41966;SDS011;27656;53.068;8.818;2022-11-25T14:43:25;27.13;;;13.03;;
41966;SDS011;27656;53.068;8.818;2022-11-25T14:46:10;25.60;;;12.80;;
41966;SDS011;27656;53.068;8.818;2022-11-25T14:48:51;22.23;;;12.97;;
41966;SDS011;27656;53.068;8.818;2022-11-25T14:51:19;23.93;;;13.33;;
41966;SDS011;27656;53.068;8.818;2022-11-25T14:53:46;23.87;;;13.77;;
41966;SDS011;27656;53.068;8.818;2022-11-25T14:56:21;27.97;;;13.67;;
41966;SDS011;27656;53.068;8.818;2022-11-25T14:58:52;23.93;;;13.97;;
41966;SDS011;27656;53.068;8.818;2022-11-25T15:01:20;27.33;;;14.63;;
41966;SDS011;27656;53.068;8.818;2022-11-25T15:06:41;19.53;;;13.23;;
41966;SDS011;27656;53.068;8.818;2022-11-25T15:09:16;27.60;;;13.03;;
41966;SDS011;27656;53.068;8.818;2022-11-25T15:11:45;18.93;;;12.43;;
41966;SDS011;27656;53.068;8.818;2022-11-25T15:14:23;20.97;;;13.43;;
41966;SDS011;27656;53.068;8.818;2022-11-25T15:16:53;28.17;;;13.50;;
41966;SDS011;27656;53.068;8.818;2022-11-25T15:19:22;28.73;;;14.20;;
41966;SDS011;27656;53.068;8.818;2022-11-25T15:21:59;27.97;;;15.30;;
41966;SDS011;27656;53.068;8.818;2022-11-25T15:24:47;27.67;;;14.10;;
41966;SDS011;27656;53.068;8.818;2022-11-25T15:27:25;20.93;;;13.23;;
41966;SDS011;27656;53.068;8.818;2022-11-25T15:29:54;25.47;;;13.73;;
41966;SDS011;27656;53.068;8.818;2022-11-25T15:32:22;23.63;;;14.07;;
41966;SDS011;27656;53.068;8.818;2022-11-25T15:34:51;27.47;;;14.83;;
41966;SDS011;27656;53.068;8.818;2022-11-25T15:37:18;24.70;;;13.23;;
41966;SDS011;27656;53.068;8.818;2022-11-25T15:39:45;26.20;;;14.53;;
41966;SDS011;27656;53.068;8.818;2022-11-25T15:42:24;30.33;;;14.97;;
41966;SDS011;27656;53.068;8.818;2022-11-25T15:44:52;33.30;;;14.43;;
41966;SDS011;27656;53.068;8.818;2022-11-25T15:47:30;26.90;;;14.50;;
41966;SDS011;27656;53.068;8.818;2022-11-25T15:50:04;21.00;;;13.43;;
41966;SDS011;27656;53.068;8.818;2022-11-25T15:52:38;21.63;;;13.77;;
41966;SDS011;27656;53.068;8.818;2022-11-25T15:55:06;25.77;;;12.93;;
41966;SDS011;27656;53.068;8.818;2022-11-25T15:57:34;25.13;;;12.97;;
41966;SDS011;27656;53.068;8.818;2022-11-25T16:10:24;29.27;;;14.50;;
41966;SDS011;27656;53.068;8.818;2022-11-25T16:18:18;21.60;;;13.57;;
41966;SDS011;27656;53.068;8.818;2022-11-25T16:23:43;23.17;;;12.47;;
41966;SDS011;27656;53.068;8.818;2022-11-25T16:28:41;24.80;;;13.43;;
41966;SDS011;27656;53.068;8.818;2022-11-25T16:31:18;24.53;;;14.07;;
41966;SDS011;27656;53.068;8.818;2022-11-25T16:33:45;24.40;;;13.80;;
41966;SDS011;27656;53.068;8.818;2022-11-25T16:36:11;26.13;;;13.53;;
41966;SDS011;27656;53.068;8.818;2022-11-25T16:38:38;22.13;;;13.20;;
41966;SDS011;27656;53.068;8.818;2022-11-25T16:41:09;21.90;;;12.90;;
41966;SDS011;27656;53.068;8.818;2022-11-25T16:43:39;22.97;;;12.60;;
41966;SDS011;27656;53.068;8.818;2022-11-25T16:46:06;22.77;;;12.33;;
41966;SDS011;27656;53.068;8.818;2022-11-25T16:48:33;25.23;;;13.00;;
41966;SDS011;27656;53.068;8.818;2022-11-25T16:50:59;22.37;;;13.50;;
41966;SDS011;27656;53.068;8.818;2022-11-25T16:53:26;21.37;;;12.97;;
41966;SDS011;27656;53.068;8.818;2022-11-25T16:55:52;20.10;;;11.93;;
41966;SDS011;27656;53.068;8.818;2022-11-25T16:58:22;26.43;;;13.10;;
41966;SDS011;27656;53.068;8.818;2022-11-25T17:00:50;22.00;;;11.87;;
41966;SDS011;27656;53.068;8.818;2022-11-25T17:03:18;23.10;;;10.97;;
41966;SDS011;27656;53.068;8.818;2022-11-25T17:05:45;20.80;;;11.77;;
41966;SDS011;27656;53.068;8.818;2022-11-25T17:08:13;19.70;;;11.27;;
41966;SDS011;27656;53.068;8.818;2022-11-25T17:10:40;17.50;;;12.00;;
41966;SDS011;27656;53.068;8.818;2022-11-25T17:13:13;23.07;;;11.90;;
41966;SDS011;27656;53.068;8.818;2022-11-25T17:15:42;23.70;;;11.83;;
41966;SDS011;27656;53.068;8.818;2022-11-25T17:18:09;20.57;;;10.53;;
41966;SDS011;27656;53.068;8.818;2022-11-25T17:20:37;20.57;;;10.23;;